createdAt,value
2019-05-19T00:01:33.785Z,31.60
2019-05-19T00:04:00.457Z,31.70
2019-05-19T00:06:27.395Z,31.70
2019-05-19T00:08:53.838Z,31.70
2019-05-19T00:11:20.887Z,31.70
2019-05-19T00:13:47.718Z,31.70
2019-05-19T00:16:14.344Z,31.70
2019-05-19T00:18:41.273Z,31.70
2019-05-19T00:21:08.037Z,31.60
2019-05-19T00:23:34.963Z,31.60
2019-05-19T00:26:01.817Z,31.60
2019-05-19T00:28:29.544Z,31.60
2019-05-19T00:30:57.026Z,31.60
2019-05-19T00:33:23.589Z,31.60
2019-05-19T00:35:50.753Z,31.60
2019-05-19T00:38:17.555Z,31.60
2019-05-19T00:40:44.948Z,31.50
2019-05-19T00:43:11.810Z,31.60
2019-05-19T00:45:38.478Z,31.50
2019-05-19T00:48:05.452Z,31.50
2019-05-19T00:50:32.492Z,31.50
2019-05-19T00:52:59.803Z,31.50
2019-05-19T00:55:27.035Z,31.50
2019-05-19T00:57:54.723Z,31.40
2019-05-19T01:00:21.421Z,31.40
2019-05-19T01:02:47.845Z,31.40
2019-05-19T01:05:14.809Z,31.40
2019-05-19T01:07:41.452Z,31.40
2019-05-19T01:10:08.719Z,31.40
2019-05-19T01:12:35.553Z,31.40
2019-05-19T01:15:07.939Z,31.40
2019-05-19T01:17:34.672Z,31.30
2019-05-19T01:20:01.499Z,31.30
2019-05-19T01:22:29.465Z,31.30
2019-05-19T01:24:56.293Z,31.30
2019-05-19T01:27:23.057Z,31.30
2019-05-19T01:29:52.369Z,31.40
2019-05-19T01:32:18.909Z,31.40
2019-05-19T01:34:46.029Z,31.50
2019-05-19T01:37:12.556Z,31.50
2019-05-19T01:39:39.354Z,31.50
2019-05-19T01:42:07.361Z,31.50
2019-05-19T01:44:34.219Z,31.50
2019-05-19T01:47:00.971Z,31.60
2019-05-19T01:49:29.165Z,31.60
2019-05-19T01:51:56.188Z,31.60
2019-05-19T01:54:23.530Z,31.60
2019-05-19T01:56:50.505Z,31.60
2019-05-19T01:59:16.954Z,31.60
2019-05-19T02:01:43.379Z,31.60
2019-05-19T02:04:10.523Z,31.60
2019-05-19T02:06:37.352Z,31.60
2019-05-19T02:09:05.947Z,31.60
2019-05-19T02:11:33.013Z,31.70
2019-05-19T02:13:59.836Z,31.70
2019-05-19T02:16:26.782Z,31.70
2019-05-19T02:18:54.435Z,31.70
2019-05-19T02:21:20.909Z,31.70
2019-05-19T02:23:47.360Z,31.70
2019-05-19T02:26:13.969Z,31.80
2019-05-19T02:28:40.494Z,31.80
2019-05-19T02:31:07.166Z,31.80
2019-05-19T02:33:35.845Z,31.80
2019-05-19T02:36:02.547Z,31.80
2019-05-19T02:38:29.168Z,31.70
2019-05-19T02:40:57.394Z,31.80
2019-05-19T02:43:26.168Z,31.90
2019-05-19T02:45:56.413Z,31.90
2019-05-19T02:48:24.784Z,31.90
2019-05-19T02:50:53.036Z,31.90
2019-05-19T02:53:20.227Z,31.90
2019-05-19T02:55:47.557Z,31.90
2019-05-19T02:58:14.189Z,31.90
2019-05-19T03:00:42.170Z,31.80
2019-05-19T03:03:09.296Z,31.80
2019-05-19T03:05:36.604Z,31.80
2019-05-19T03:08:03.709Z,31.70
2019-05-19T03:10:33.616Z,31.70
2019-05-19T03:13:00.209Z,31.60
2019-05-19T03:15:26.777Z,31.60
2019-05-19T03:17:53.870Z,31.60
2019-05-19T03:20:20.456Z,31.60
2019-05-19T03:22:47.127Z,31.50
2019-05-19T03:25:14.002Z,31.50
2019-05-19T03:27:40.562Z,31.50
2019-05-19T03:30:26.644Z,31.60
2019-05-19T03:32:55.096Z,31.60
2019-05-19T03:35:21.635Z,31.70
2019-05-19T03:37:48.274Z,31.70
2019-05-19T03:40:20.890Z,31.70
2019-05-19T03:42:50.796Z,31.70
2019-05-19T03:45:17.707Z,31.70
2019-05-19T03:47:44.558Z,31.70
2019-05-19T03:50:11.510Z,31.70
2019-05-19T03:52:38.042Z,31.70
2019-05-19T03:55:05.494Z,31.70
2019-05-19T03:57:32.772Z,31.70
2019-05-19T03:59:59.426Z,31.70
2019-05-19T04:02:25.995Z,31.70
2019-05-19T04:04:53.792Z,31.70
2019-05-19T04:07:20.239Z,31.70
2019-05-19T04:09:46.662Z,31.70
2019-05-19T04:12:13.722Z,31.70
2019-05-19T04:14:40.475Z,31.70
2019-05-19T04:17:06.922Z,31.80
2019-05-19T04:19:33.730Z,31.90
2019-05-19T04:22:00.186Z,32.00
2019-05-19T04:24:26.617Z,32.00
2019-05-19T04:26:53.357Z,32.00
2019-05-19T04:29:19.884Z,32.10
2019-05-19T04:31:46.331Z,32.10
2019-05-19T04:34:12.952Z,32.20
2019-05-19T04:36:39.376Z,32.20
2019-05-19T04:39:05.930Z,32.30
2019-05-19T04:41:32.561Z,32.30
2019-05-19T04:44:00.345Z,32.30
2019-05-19T04:46:27.075Z,32.30
2019-05-19T04:48:53.923Z,32.30
2019-05-19T04:51:20.347Z,32.30
2019-05-19T04:53:46.949Z,32.30
2019-05-19T04:56:13.839Z,32.30
2019-05-19T04:58:40.309Z,32.20
2019-05-19T05:01:06.755Z,32.30
2019-05-19T05:03:33.827Z,32.30
2019-05-19T05:06:00.268Z,32.20
2019-05-19T05:08:30.425Z,32.20
2019-05-19T05:10:55.490Z,32.20
2019-05-19T05:13:22.255Z,32.30
2019-05-19T05:15:48.673Z,32.30
2019-05-19T05:18:15.547Z,32.30
2019-05-19T05:20:41.954Z,32.30
2019-05-19T05:23:08.432Z,32.30
2019-05-19T05:25:35.210Z,32.40
2019-05-19T05:28:01.655Z,32.40
2019-05-19T05:30:28.299Z,32.40
2019-05-19T05:32:55.164Z,32.50
2019-05-19T05:35:22.336Z,32.50
2019-05-19T05:37:49.055Z,32.60
2019-05-19T05:40:16.126Z,32.60
2019-05-19T05:42:43.146Z,32.60
2019-05-19T05:45:10.846Z,32.60
2019-05-19T05:47:38.143Z,32.70
2019-05-19T05:50:06.010Z,32.80
2019-05-19T05:52:38.454Z,32.80
2019-05-19T05:55:01.690Z,32.80
2019-05-19T05:57:28.149Z,32.80
2019-05-19T05:59:55.076Z,32.80
2019-05-19T06:02:22.109Z,32.80
2019-05-19T06:04:48.560Z,32.90
2019-05-19T06:07:15.248Z,33.00
2019-05-19T06:09:42.218Z,33.10
2019-05-19T06:12:09.859Z,33.10
2019-05-19T06:14:36.291Z,33.10
2019-05-19T06:17:03.160Z,33.10
2019-05-19T06:19:29.882Z,33.20
2019-05-19T06:21:56.636Z,33.20
2019-05-19T06:24:23.397Z,33.20
2019-05-19T06:26:49.949Z,33.20
2019-05-19T06:29:16.512Z,33.10
2019-05-19T06:31:43.342Z,33.10
2019-05-19T06:34:10.030Z,33.10
2019-05-19T06:36:36.563Z,33.10
2019-05-19T06:39:06.098Z,33.10
2019-05-19T06:41:32.802Z,33.20
2019-05-19T06:44:02.849Z,33.30
2019-05-19T06:46:28.164Z,33.30
2019-05-19T06:48:54.853Z,33.20
2019-05-19T06:51:21.322Z,33.10
2019-05-19T06:53:48.504Z,33.10
2019-05-19T06:56:15.205Z,33.00
2019-05-19T06:58:42.054Z,32.90
2019-05-19T07:01:09.043Z,32.80
2019-05-19T07:03:35.754Z,32.80
2019-05-19T07:06:02.407Z,32.80
2019-05-19T07:08:29.242Z,32.80
2019-05-19T07:10:55.787Z,32.80
2019-05-19T07:13:22.373Z,32.80
2019-05-19T07:15:49.374Z,32.90
2019-05-19T07:18:15.811Z,33.00
2019-05-19T07:20:42.383Z,33.00
2019-05-19T07:23:09.568Z,33.00
2019-05-19T07:25:36.134Z,33.10
2019-05-19T07:28:03.041Z,33.10
2019-05-19T07:30:29.936Z,33.10
2019-05-19T07:32:57.116Z,33.10
2019-05-19T07:35:26.713Z,33.10
2019-05-19T07:37:54.318Z,33.20
2019-05-19T07:40:22.205Z,33.20
2019-05-19T07:42:51.984Z,33.20
2019-05-19T07:45:20.425Z,33.30
2019-05-19T07:47:48.704Z,33.40
2019-05-19T07:50:15.897Z,33.30
2019-05-19T07:52:45.245Z,33.30
2019-05-19T07:55:15.955Z,33.20
2019-05-19T07:57:45.580Z,33.10
2019-05-19T08:00:15.850Z,33.20
2019-05-19T08:02:44.477Z,33.30
2019-05-19T08:05:12.221Z,33.40
2019-05-19T08:07:40.291Z,33.50
2019-05-19T08:10:08.395Z,33.50
2019-05-19T08:12:36.450Z,33.40
2019-05-19T08:15:06.374Z,33.40
2019-05-19T08:17:33.683Z,33.40
2019-05-19T08:20:04.025Z,33.40
2019-05-19T08:22:31.807Z,33.50
2019-05-19T08:24:59.584Z,33.60
2019-05-19T08:27:26.532Z,33.60
2019-05-19T08:29:53.610Z,33.70
2019-05-19T08:32:20.275Z,33.80
2019-05-19T08:34:47.575Z,33.90
2019-05-19T08:37:14.888Z,33.80
2019-05-19T08:39:44.005Z,34.00
2019-05-19T08:42:16.233Z,34.00
2019-05-19T08:44:44.724Z,34.20
2019-05-19T08:47:12.924Z,34.30
2019-05-19T08:49:40.301Z,34.40
2019-05-19T08:52:09.869Z,34.50
2019-05-19T08:54:39.315Z,34.50
2019-05-19T08:57:08.119Z,34.50
2019-05-19T08:59:35.483Z,34.50
2019-05-19T09:02:04.503Z,34.60
2019-05-19T09:04:33.734Z,34.60
2019-05-19T09:07:02.593Z,34.60
2019-05-19T09:09:30.494Z,34.60
2019-05-19T09:11:59.421Z,34.70
2019-05-19T09:14:47.861Z,34.70
2019-05-19T09:17:15.620Z,34.70
2019-05-19T09:19:43.039Z,34.80
2019-05-19T09:22:10.562Z,34.70
2019-05-19T09:24:38.582Z,34.60
2019-05-19T09:27:08.096Z,34.50
2019-05-19T09:29:37.093Z,34.40
2019-05-19T09:32:04.693Z,34.30
2019-05-19T09:34:33.987Z,34.00
2019-05-19T09:37:04.429Z,33.90
2019-05-19T09:39:31.964Z,33.90
2019-05-19T09:41:59.858Z,33.90
2019-05-19T09:44:27.353Z,34.00
2019-05-19T09:46:54.355Z,34.10
2019-05-19T09:49:36.723Z,34.20
2019-05-19T09:52:05.954Z,34.40
2019-05-19T09:54:44.705Z,34.50
2019-05-19T09:57:04.902Z,34.70
2019-05-19T09:59:32.238Z,34.90
2019-05-19T10:02:00.026Z,35.00
2019-05-19T10:04:29.872Z,35.00
2019-05-19T10:07:04.063Z,35.10
2019-05-19T10:09:44.467Z,35.10
2019-05-19T10:12:11.830Z,35.20
2019-05-19T10:14:38.549Z,35.30
2019-05-19T10:17:05.485Z,35.30
2019-05-19T10:19:33.781Z,35.20
2019-05-19T10:22:03.430Z,35.00
2019-05-19T10:24:31.259Z,35.10
2019-05-19T10:27:00.168Z,35.20
2019-05-19T10:29:30.460Z,35.20
2019-05-19T10:31:58.269Z,35.20
2019-05-19T10:34:25.749Z,35.10
2019-05-19T10:36:53.646Z,35.20
2019-05-19T10:39:21.263Z,35.10
2019-05-19T10:41:48.686Z,34.90
2019-05-19T10:44:17.103Z,35.00
2019-05-19T10:46:57.763Z,35.00
2019-05-19T10:49:25.222Z,35.20
2019-05-19T10:51:52.765Z,35.20
2019-05-19T10:54:22.364Z,35.20
2019-05-19T10:56:52.016Z,35.20
2019-05-19T10:59:21.067Z,35.10
2019-05-19T11:01:51.324Z,35.20
2019-05-19T11:04:23.029Z,35.20
2019-05-19T11:06:52.361Z,35.40
2019-05-19T11:09:20.044Z,35.40
2019-05-19T11:11:50.428Z,35.40
2019-05-19T11:14:22.532Z,35.40
2019-05-19T11:16:53.580Z,35.40
2019-05-19T11:19:20.926Z,35.40
2019-05-19T11:21:48.415Z,35.40
2019-05-19T11:24:15.751Z,35.40
2019-05-19T11:26:43.814Z,35.40
2019-05-19T11:29:11.297Z,35.50
2019-05-19T11:31:39.178Z,35.70
2019-05-19T11:34:06.591Z,35.80
2019-05-19T11:36:34.049Z,35.90
2019-05-19T11:39:01.138Z,36.00
2019-05-19T11:41:29.500Z,35.80
2019-05-19T11:43:56.917Z,35.60
2019-05-19T11:46:24.017Z,35.60
2019-05-19T11:48:51.546Z,35.40
2019-05-19T11:51:18.885Z,35.50
2019-05-19T11:53:45.778Z,35.70
2019-05-19T11:56:13.419Z,36.00
2019-05-19T11:58:40.476Z,36.20
2019-05-19T12:01:09.234Z,36.50
2019-05-19T12:03:36.490Z,36.60
2019-05-19T12:06:03.577Z,36.80
2019-05-19T12:08:36.326Z,36.80
2019-05-19T12:11:03.530Z,36.90
2019-05-19T12:13:30.531Z,36.90
2019-05-19T12:15:59.106Z,36.90
2019-05-19T12:18:26.744Z,36.80
2019-05-19T12:20:55.976Z,36.70
2019-05-19T12:23:24.054Z,36.80
2019-05-19T12:25:51.194Z,36.80
2019-05-19T12:28:18.459Z,36.80
2019-05-19T12:30:45.700Z,36.80
2019-05-19T12:33:12.872Z,36.90
2019-05-19T12:35:40.345Z,37.00
2019-05-19T12:38:10.726Z,37.00
2019-05-19T12:40:38.193Z,37.10
2019-05-19T12:43:05.521Z,37.20
2019-05-19T12:45:33.114Z,37.40
2019-05-19T12:48:01.485Z,37.40
2019-05-19T12:50:28.636Z,37.40
2019-05-19T12:52:56.626Z,37.60
2019-05-19T12:55:24.169Z,37.70
2019-05-19T12:57:51.981Z,37.80
2019-05-19T13:00:19.805Z,37.80
2019-05-19T13:02:48.955Z,37.80
2019-05-19T13:05:17.381Z,37.90
2019-05-19T13:07:45.253Z,37.80
2019-05-19T13:10:13.158Z,37.60
2019-05-19T13:12:41.056Z,37.70
2019-05-19T13:15:09.712Z,37.90
2019-05-19T13:17:37.547Z,37.90
2019-05-19T13:20:05.311Z,38.00
2019-05-19T13:22:34.666Z,38.00
2019-05-19T13:25:03.393Z,38.00
2019-05-19T13:27:30.772Z,38.20
2019-05-19T13:30:00.093Z,38.50
2019-05-19T13:32:27.871Z,38.50
2019-05-19T13:34:56.531Z,38.50
2019-05-19T13:37:25.724Z,38.60
2019-05-19T13:39:53.858Z,38.70
2019-05-19T13:42:21.520Z,38.70
2019-05-19T13:44:51.348Z,38.50
2019-05-19T13:47:19.455Z,38.50
2019-05-19T13:49:48.395Z,38.50
2019-05-19T13:52:18.419Z,38.50
2019-05-19T13:54:46.144Z,38.70
2019-05-19T13:57:16.016Z,38.80
2019-05-19T13:59:44.127Z,39.00
2019-05-19T14:02:13.248Z,39.00
2019-05-19T14:04:42.507Z,38.90
2019-05-19T14:07:10.713Z,38.90
2019-05-19T14:09:39.096Z,38.80
2019-05-19T14:12:06.831Z,38.70
2019-05-19T14:14:34.071Z,38.70
2019-05-19T14:17:01.419Z,38.70
2019-05-19T14:19:28.682Z,38.60
2019-05-19T14:21:57.394Z,38.40
2019-05-19T14:24:26.292Z,38.30
2019-05-19T14:26:55.053Z,38.30
2019-05-19T14:29:23.214Z,38.10
2019-05-19T14:31:52.566Z,38.00
2019-05-19T14:34:20.208Z,38.10
2019-05-19T14:36:48.883Z,38.10
2019-05-19T14:39:18.276Z,38.10
2019-05-19T14:41:48.955Z,38.10
2019-05-19T14:44:18.381Z,38.00
2019-05-19T14:46:46.790Z,37.80
2019-05-19T14:49:16.592Z,37.80
2019-05-19T14:51:45.654Z,37.70
2019-05-19T14:54:13.691Z,37.60
2019-05-19T14:56:43.539Z,37.40
2019-05-19T14:59:15.430Z,37.20
2019-05-19T15:01:45.156Z,37.10
2019-05-19T15:04:13.540Z,36.90
2019-05-19T15:06:41.968Z,36.90
2019-05-19T15:09:09.702Z,36.80
2019-05-19T15:11:37.878Z,36.80
2019-05-19T15:14:06.462Z,36.80
2019-05-19T15:16:35.417Z,36.90
2019-05-19T15:19:03.444Z,36.90
2019-05-19T15:21:35.411Z,36.80
2019-05-19T15:24:05.703Z,36.90
2019-05-19T15:26:35.156Z,36.90
2019-05-19T15:29:04.557Z,36.90
2019-05-19T15:31:34.630Z,36.90
2019-05-19T15:34:02.590Z,36.90
2019-05-19T15:36:29.747Z,36.90
2019-05-19T15:38:57.916Z,36.90
2019-05-19T15:41:26.680Z,37.00
2019-05-19T15:43:54.435Z,37.00
2019-05-19T15:46:21.752Z,37.00
2019-05-19T15:48:51.012Z,36.90
2019-05-19T15:51:28.721Z,37.00
2019-05-19T15:53:49.188Z,37.00
2019-05-19T15:56:18.827Z,37.10
2019-05-19T15:58:46.546Z,37.20
2019-05-19T16:01:14.165Z,37.30
2019-05-19T16:03:41.609Z,37.30
2019-05-19T16:06:12.833Z,37.30
2019-05-19T16:08:41.515Z,37.30
2019-05-19T16:11:08.689Z,37.20
2019-05-19T16:13:37.546Z,37.20
2019-05-19T16:16:05.252Z,37.20
2019-05-19T16:18:32.901Z,37.20
2019-05-19T16:21:01.505Z,37.20
2019-05-19T16:23:31.664Z,37.20
2019-05-19T16:26:00.825Z,37.20
2019-05-19T16:28:31.068Z,37.20
2019-05-19T16:30:59.048Z,37.20
2019-05-19T16:33:28.034Z,37.20
2019-05-19T16:35:55.397Z,37.20
2019-05-19T16:38:30.258Z,37.10
2019-05-19T16:40:57.988Z,37.10
2019-05-19T16:43:25.333Z,37.10
2019-05-19T16:45:53.290Z,37.00
2019-05-19T16:48:23.259Z,37.00
2019-05-19T16:50:49.790Z,37.00
2019-05-19T16:53:17.519Z,36.90
2019-05-19T16:55:44.405Z,36.90
2019-05-19T16:58:20.585Z,36.80
2019-05-19T17:00:40.800Z,36.80
2019-05-19T17:03:07.952Z,36.80
2019-05-19T17:05:35.946Z,36.70
2019-05-19T17:08:02.913Z,36.70
2019-05-19T17:10:29.936Z,36.70
2019-05-19T17:13:03.207Z,36.80
2019-05-19T17:15:31.207Z,36.90
2019-05-19T17:17:58.451Z,36.90
2019-05-19T17:20:26.743Z,37.00
2019-05-19T17:22:54.379Z,36.90
2019-05-19T17:25:23.277Z,36.80
2019-05-19T17:27:50.729Z,36.70
2019-05-19T17:30:19.957Z,36.60
2019-05-19T17:32:46.755Z,36.50
2019-05-19T17:35:13.813Z,36.40
2019-05-19T17:37:41.037Z,36.40
2019-05-19T17:40:09.798Z,36.20
2019-05-19T17:42:37.392Z,36.10
2019-05-19T17:45:06.934Z,36.00
2019-05-19T17:47:35.197Z,36.00
2019-05-19T17:50:03.262Z,35.80
2019-05-19T17:52:30.853Z,35.70
2019-05-19T17:54:58.304Z,35.60
2019-05-19T17:57:26.168Z,35.60
2019-05-19T17:59:53.977Z,35.50
2019-05-19T18:02:21.073Z,35.40
2019-05-19T18:04:47.909Z,35.30
2019-05-19T18:07:15.585Z,35.20
2019-05-19T18:09:42.445Z,35.10
2019-05-19T18:12:09.334Z,35.00
2019-05-19T18:14:36.848Z,34.90
2019-05-19T18:17:04.975Z,34.90
2019-05-19T18:19:31.897Z,34.80
2019-05-19T18:21:58.994Z,34.80
2019-05-19T18:24:25.615Z,34.80
2019-05-19T18:26:52.397Z,34.70
2019-05-19T18:29:30.533Z,34.70
2019-05-19T18:31:48.095Z,34.60
2019-05-19T18:34:15.287Z,34.60
2019-05-19T18:36:42.548Z,34.60
2019-05-19T18:39:09.295Z,34.50
2019-05-19T18:41:36.150Z,34.50
2019-05-19T18:44:03.231Z,34.50
2019-05-19T18:46:29.640Z,34.50
2019-05-19T18:48:56.736Z,34.50
2019-05-19T18:51:24.955Z,34.40
2019-05-19T18:53:51.772Z,34.40
2019-05-19T18:56:18.701Z,34.30
2019-05-19T18:58:46.205Z,34.30
2019-05-19T19:01:13.328Z,34.20
2019-05-19T19:03:41.594Z,34.10
2019-05-19T19:06:08.482Z,34.10
2019-05-19T19:08:37.861Z,34.00
2019-05-19T19:11:04.471Z,33.90
2019-05-19T19:13:31.667Z,33.80
2019-05-19T19:15:59.804Z,33.80
2019-05-19T19:18:26.958Z,33.70
2019-05-19T19:20:54.012Z,33.70
2019-05-19T19:23:21.380Z,33.60
2019-05-19T19:25:48.041Z,33.50
2019-05-19T19:28:15.503Z,33.50
2019-05-19T19:30:43.464Z,33.40
2019-05-19T19:33:10.387Z,33.30
2019-05-19T19:35:39.526Z,33.30
2019-05-19T19:38:06.858Z,33.30
2019-05-19T19:40:34.003Z,33.30
2019-05-19T19:43:01.399Z,33.30
2019-05-19T19:45:28.395Z,33.30
2019-05-19T19:47:55.363Z,33.30
2019-05-19T19:50:22.489Z,33.40
2019-05-19T19:52:50.051Z,33.40
2019-05-19T19:55:16.726Z,33.30
2019-05-19T19:57:43.702Z,33.30
2019-05-19T20:00:18.203Z,33.30
2019-05-19T20:02:39.215Z,33.30
2019-05-19T20:05:07.971Z,33.20
2019-05-19T20:07:34.999Z,33.20
2019-05-19T20:10:04.058Z,33.20
2019-05-19T20:12:31.425Z,33.20
2019-05-19T20:14:58.267Z,33.20
2019-05-19T20:17:25.207Z,33.20
2019-05-19T20:19:52.411Z,33.20
2019-05-19T20:22:19.358Z,33.20
2019-05-19T20:24:46.318Z,33.20
2019-05-19T20:27:13.885Z,33.10
2019-05-19T20:29:41.148Z,33.10
2019-05-19T20:32:08.359Z,33.10
2019-05-19T20:34:36.013Z,33.10
2019-05-19T20:37:03.073Z,33.10
2019-05-19T20:39:30.481Z,33.00
2019-05-19T20:41:57.389Z,33.00
2019-05-19T20:44:24.167Z,33.00
2019-05-19T20:46:50.723Z,33.00
2019-05-19T20:49:17.999Z,33.00
2019-05-19T20:51:45.144Z,33.00
2019-05-19T20:54:11.895Z,33.00
2019-05-19T20:56:39.557Z,33.00
2019-05-19T20:59:07.315Z,33.00
2019-05-19T21:01:34.465Z,33.00
2019-05-19T21:04:01.318Z,33.00
2019-05-19T21:06:29.324Z,33.00
2019-05-19T21:08:57.670Z,33.00
2019-05-19T21:11:25.352Z,33.00
2019-05-19T21:13:52.760Z,33.00
2019-05-19T21:16:19.844Z,33.00
2019-05-19T21:19:06.875Z,33.00
2019-05-19T21:21:33.434Z,33.00
2019-05-19T21:24:00.432Z,33.00
2019-05-19T21:26:27.525Z,33.10
2019-05-19T21:28:54.297Z,33.10
2019-05-19T21:31:21.173Z,33.00
2019-05-19T21:33:48.628Z,33.00
2019-05-19T21:36:15.490Z,33.00
2019-05-19T21:38:42.129Z,33.00
2019-05-19T21:41:08.773Z,32.90
2019-05-19T21:43:35.910Z,33.00
2019-05-19T21:46:02.652Z,32.90
2019-05-19T21:48:34.205Z,32.90
2019-05-19T21:51:01.647Z,32.80
2019-05-19T21:53:28.705Z,32.90
2019-05-19T21:55:55.958Z,32.90
2019-05-19T21:58:22.906Z,32.90
2019-05-19T22:00:50.490Z,32.90
2019-05-19T22:03:17.608Z,32.90
2019-05-19T22:05:52.887Z,32.90
2019-05-19T22:08:14.675Z,32.80
2019-05-19T22:10:41.656Z,32.90
2019-05-19T22:13:09.001Z,32.80
2019-05-19T22:15:36.241Z,32.80
2019-05-19T22:18:03.798Z,32.80
2019-05-19T22:20:30.471Z,32.70
2019-05-19T22:22:57.135Z,32.70
2019-05-19T22:25:23.938Z,32.70
2019-05-19T22:27:51.609Z,32.60
2019-05-19T22:30:18.412Z,32.50
2019-05-19T22:32:45.984Z,32.50
2019-05-19T22:35:13.052Z,32.50
2019-05-19T22:37:40.199Z,32.50
2019-05-19T22:40:07.160Z,32.40
2019-05-19T22:42:34.041Z,32.30
2019-05-19T22:45:01.633Z,32.30
2019-05-19T22:47:30.012Z,32.30
2019-05-19T22:49:56.812Z,32.30
2019-05-19T22:52:23.786Z,32.30
2019-05-19T22:54:50.771Z,32.20
2019-05-19T22:57:18.141Z,32.20
2019-05-19T22:59:45.872Z,32.10
2019-05-19T23:02:14.688Z,32.10
2019-05-19T23:04:42.345Z,32.10
2019-05-19T23:07:09.075Z,32.10
2019-05-19T23:09:36.535Z,32.10
2019-05-19T23:12:03.367Z,32.10
2019-05-19T23:14:30.224Z,32.20
2019-05-19T23:16:57.121Z,32.20
2019-05-19T23:19:24.040Z,32.30
2019-05-19T23:21:50.650Z,32.20
2019-05-19T23:24:17.503Z,32.20
2019-05-19T23:26:43.969Z,32.20
2019-05-19T23:29:10.969Z,32.20
2019-05-19T23:31:38.026Z,32.20
2019-05-19T23:34:05.115Z,32.30
2019-05-19T23:36:32.162Z,32.30
2019-05-19T23:38:59.089Z,32.30
2019-05-19T23:41:26.025Z,32.30
2019-05-19T23:43:53.168Z,32.20
2019-05-19T23:46:19.865Z,32.20
2019-05-19T23:48:46.763Z,32.20
2019-05-19T23:51:14.306Z,32.20
2019-05-19T23:53:40.973Z,32.10
2019-05-19T23:56:08.674Z,32.10
2019-05-19T23:58:36.063Z,32.10
